Time;durP1;ratioP1;P1;durP2;ratioP2;P2;SDS_P1;SDS_P2;PMS_P1;PMS_P2;Temp;Humidity;BMP_temperature;BMP_pressure;BME280_temperature;BME280_humidity;BME280_pressure;Samples;Min_cycle;Max_cycle;Signal;HPM_P1;HPM_P2
2021/03/24 00:02:20;;;;;;;2.83;2.22;;;22.50;30.70;;;;;;5007506;28;20410;-64
2021/03/24 00:04:45;;;;;;;2.97;2.30;;;22.50;30.70;;;;;;4992380;28;20422;-63
2021/03/24 00:07:11;;;;;;;2.77;2.03;;;22.50;30.80;;;;;;4992365;28;20383;-63
2021/03/24 00:09:37;;;;;;;3.10;2.13;;;22.50;30.70;;;;;;4992000;28;20505;-63
2021/03/24 00:12:03;;;;;;;2.90;2.00;;;22.40;30.70;;;;;;4992306;28;20403;-63
2021/03/24 00:14:29;;;;;;;2.72;1.90;;;22.40;30.70;;;;;;4992381;28;20477;-64
2021/03/24 00:16:55;;;;;;;3.10;2.20;;;22.40;30.80;;;;;;4992417;28;20563;-64
2021/03/24 00:19:20;;;;;;;2.47;2.00;;;22.40;30.80;;;;;;5012064;28;20388;-63
2021/03/24 00:21:46;;;;;;;2.90;2.00;;;22.30;30.80;;;;;;5011416;28;20401;-63
2021/03/24 00:24:11;;;;;;;2.67;2.00;;;22.30;30.80;;;;;;5011693;28;20420;-63
2021/03/24 00:26:37;;;;;;;2.60;2.00;;;22.30;30.90;;;;;;5011539;28;20474;-64
2021/03/24 00:29:03;;;;;;;2.40;1.83;;;22.30;30.90;;;;;;5011788;28;20876;-63
2021/03/24 00:31:29;;;;;;;2.60;1.83;;;22.30;30.90;;;;;;5011309;28;20401;-63
2021/03/24 00:33:54;;;;;;;2.67;1.90;;;22.20;30.90;;;;;;5011319;28;20454;-63
2021/03/24 00:36:20;;;;;;;2.58;2.05;;;22.20;30.90;;;;;;5011681;28;20877;-63
2021/03/24 00:38:46;;;;;;;3.03;2.00;;;22.20;31.60;;;;;;5011769;28;20476;-63
2021/03/24 00:41:12;;;;;;;2.58;1.70;;;22.20;30.90;;;;;;5011627;28;20416;-63
2021/03/24 00:43:37;;;;;;;2.50;1.90;;;22.10;30.90;;;;;;5011049;28;20420;-63
2021/03/24 00:46:04;;;;;;;2.80;1.93;;;22.20;31.10;;;;;;5011274;28;20476;-64
2021/03/24 00:48:34;;;;;;;2.45;1.90;;;22.10;30.90;;;;;;5014160;28;20404;-63
2021/03/24 00:51:00;;;;;;;2.70;1.90;;;22.10;31.00;;;;;;5015529;28;20385;-63
2021/03/24 00:53:26;;;;;;;2.80;1.90;;;22.10;31.00;;;;;;5015556;28;20442;-62
2021/03/24 00:55:53;;;;;;;3.53;2.33;;;22.00;30.90;;;;;;5014870;28;20385;-64
2021/03/24 00:58:19;;;;;;;2.95;2.00;;;22.00;31.00;;;;;;5015606;28;20391;-64
2021/03/24 01:00:46;;;;;;;3.10;2.10;;;22.00;31.00;;;;;;5015473;28;20389;-64
2021/03/24 01:03:13;;;;;;;3.10;2.00;;;22.00;31.20;;;;;;5015327;28;20892;-63
2021/03/24 01:05:44;;;;;;;2.95;2.08;;;21.90;31.00;;;;;;5014877;28;20400;-64
2021/03/24 01:08:18;;;;;;;3.13;2.03;;;21.90;30.90;;;;;;5015321;28;20486;-63
2021/03/24 01:10:44;;;;;;;2.17;1.80;;;21.90;30.90;;;;;;5015352;28;20400;-63
2021/03/24 01:13:12;;;;;;;2.88;2.20;;;21.90;31.00;;;;;;5015190;28;20769;-63
2021/03/24 01:15:38;;;;;;;2.67;2.03;;;21.80;31.00;;;;;;5014695;28;20395;-64
2021/03/24 01:18:03;;;;;;;2.97;2.17;;;21.80;31.00;;;;;;5015042;28;20483;-63
2021/03/24 01:20:32;;;;;;;2.80;2.10;;;21.80;31.00;;;;;;5015119;28;20384;-62
2021/03/24 01:22:58;;;;;;;2.58;1.88;;;21.80;31.00;;;;;;5014896;28;20463;-63
2021/03/24 01:25:25;;;;;;;2.77;2.00;;;21.80;31.00;;;;;;5015035;28;20393;-63
2021/03/24 01:27:53;;;;;;;2.55;1.95;;;21.70;31.00;;;;;;5014711;28;20472;-64
2021/03/24 01:30:20;;;;;;;3.03;2.05;;;21.70;31.00;;;;;;5014822;28;20407;-65
2021/03/24 01:32:46;;;;;;;2.67;2.03;;;21.70;31.00;;;;;;5014413;28;20420;-64
2021/03/24 01:35:13;;;;;;;2.95;2.10;;;21.70;31.10;;;;;;5014839;28;20895;-64
2021/03/24 01:37:40;;;;;;;2.50;1.98;;;21.70;31.10;;;;;;5014341;28;20393;-63
2021/03/24 01:40:09;;;;;;;2.50;1.90;;;21.70;31.10;;;;;;5014713;28;20388;-63
2021/03/24 01:42:35;;;;;;;2.80;1.90;;;21.70;31.10;;;;;;5014623;28;20416;-63
2021/03/24 01:45:03;;;;;;;2.40;1.90;;;21.60;31.00;;;;;;5014343;28;20458;-63
2021/03/24 01:47:29;;;;;;;2.75;2.03;;;21.60;31.10;;;;;;5014581;28;20389;-63
2021/03/24 01:49:56;;;;;;;2.70;1.88;;;21.60;31.10;;;;;;5014071;28;20401;-64
2021/03/24 01:52:22;;;;;;;2.25;1.90;;;21.60;31.10;;;;;;5014538;28;20396;-64
2021/03/24 01:54:48;;;;;;;3.38;2.20;;;21.60;31.10;;;;;;5014260;28;20881;-63
2021/03/24 01:57:19;;;;;;;2.35;1.90;;;21.60;31.20;;;;;;5014406;28;20392;-62
2021/03/24 01:59:46;;;;;;;2.60;2.00;;;21.50;31.10;;;;;;5013846;28;20388;-64
2021/03/24 02:02:17;;;;;;;2.65;2.15;;;21.50;31.10;;;;;;5014189;28;20401;-62
2021/03/24 02:04:42;;;;;;;3.10;2.00;;;21.50;31.20;;;;;;5014180;28;20420;-62
2021/03/24 02:07:20;;;;;;;3.13;2.25;;;21.50;31.20;;;;;;5014069;28;20773;-62
2021/03/24 02:10:07;;;;;;;2.33;1.70;;;21.50;31.10;;;;;;5013622;28;20881;-64
2021/03/24 02:13:00;;;;;;;2.88;2.17;;;21.50;31.10;;;;;;5014109;28;20479;-64
2021/03/24 02:15:33;;;;;;;2.67;2.10;;;21.40;31.10;;;;;;5014003;28;20401;-64
2021/03/24 02:18:00;;;;;;;3.20;2.30;;;21.40;31.20;;;;;;5013693;28;20924;-64
2021/03/24 02:20:41;;;;;;;2.58;1.98;;;21.40;31.20;;;;;;5012826;28;20393;-63
2021/03/24 02:23:14;;;;;;;2.35;1.95;;;21.40;31.20;;;;;;5013845;28;20421;-63
2021/03/24 02:25:48;;;;;;;3.03;2.20;;;21.30;31.20;;;;;;5013504;28;20761;-63
2021/03/24 02:28:14;;;;;;;2.60;2.00;;;21.30;31.20;;;;;;5013866;28;20873;-63
2021/03/24 02:30:46;;;;;;;3.23;2.30;;;21.30;31.30;;;;;;5013640;28;20392;-63
2021/03/24 02:33:18;;;;;;;2.70;2.00;;;21.30;31.20;;;;;;5013608;28;20536;-62
2021/03/24 02:35:50;;;;;;;2.58;1.90;;;21.30;31.20;;;;;;5012655;28;20397;-62
2021/03/24 02:38:18;;;;;;;2.65;1.90;;;21.20;31.20;;;;;;5013261;28;20385;-62
2021/03/24 02:40:46;;;;;;;2.83;2.10;;;21.20;31.20;;;;;;5013596;28;20393;-63
2021/03/24 02:43:13;;;;;;;2.72;2.13;;;21.20;31.20;;;;;;5013461;28;20436;-63
2021/03/24 02:45:43;;;;;;;2.67;2.10;;;21.20;31.20;;;;;;5013062;28;20395;-63
2021/03/24 02:48:12;;;;;;;2.95;2.10;;;21.20;31.20;;;;;;5013401;28;20377;-63
2021/03/24 02:50:41;;;;;;;2.55;1.92;;;21.20;31.20;;;;;;5013319;28;20393;-63
2021/03/24 02:53:08;;;;;;;2.65;2.05;;;21.20;31.20;;;;;;5013369;28;20391;-62
2021/03/24 02:55:36;;;;;;;2.65;2.08;;;21.10;31.20;;;;;;5013353;28;20491;-62
2021/03/24 02:58:02;;;;;;;2.60;2.20;;;21.10;31.20;;;;;;5012929;28;20384;-62
2021/03/24 03:00:28;;;;;;;2.75;2.10;;;21.10;31.30;;;;;;5013308;28;20479;-63
2021/03/24 03:03:32;;;;;;;2.90;2.25;;;21.10;31.30;;;;;;5013129;28;20475;-63
2021/03/24 03:06:01;;;;;;;3.00;2.20;;;21.00;31.20;;;;;;5012683;28;20392;-63
2021/03/24 03:08:41;;;;;;;2.78;2.13;;;21.00;31.20;;;;;;5013103;28;20392;-63
2021/03/24 03:11:30;;;;;;;2.87;2.10;;;21.00;31.20;;;;;;5012431;28;20834;-64
2021/03/24 03:14:01;;;;;;;3.17;2.20;;;21.00;31.30;;;;;;5012495;28;20423;-62
2021/03/24 03:16:49;;;;;;;2.67;1.88;;;21.00;31.40;;;;;;5013012;28;20492;-63
2021/03/24 03:19:30;;;;;;;2.78;1.98;;;21.00;31.30;;;;;;5012944;28;20389;-62
2021/03/24 03:22:03;;;;;;;2.97;2.00;;;20.90;31.30;;;;;;5012312;28;20765;-63
2021/03/24 03:24:47;;;;;;;2.67;1.95;;;20.90;31.30;;;;;;5012456;28;20781;-63
2021/03/24 03:27:17;;;;;;;2.60;1.90;;;20.90;31.30;;;;;;5011850;28;20940;-62
2021/03/24 03:29:44;;;;;;;3.10;2.05;;;20.90;31.30;;;;;;5012324;28;20885;-62
2021/03/24 03:32:15;;;;;;;2.67;2.30;;;20.90;31.40;;;;;;5012446;28;20420;-62
2021/03/24 03:34:44;;;;;;;2.53;2.05;;;20.90;31.30;;;;;;5011451;28;20400;-62
2021/03/24 03:37:10;;;;;;;3.53;2.05;;;20.80;31.20;;;;;;5012217;28;20404;-63
2021/03/24 03:39:36;;;;;;;2.85;1.98;;;20.80;31.30;;;;;;5012558;28;20463;-62
2021/03/24 03:42:03;;;;;;;2.38;2.00;;;20.80;31.40;;;;;;5012154;28;20817;-62
2021/03/24 03:44:30;;;;;;;2.38;1.90;;;20.80;31.30;;;;;;5012409;28;20443;-62
2021/03/24 03:47:04;;;;;;;2.25;2.00;;;20.80;31.30;;;;;;5012239;28;20889;-62
2021/03/24 03:49:30;;;;;;;2.30;1.95;;;20.80;31.40;;;;;;5010988;28;20385;-62
2021/03/24 03:52:30;;;;;;;2.72;2.00;;;20.70;31.30;;;;;;5011407;28;20731;-62
2021/03/24 03:55:16;;;;;;;2.30;1.90;;;20.70;31.30;;;;;;5026312;28;20397;-63
2021/03/24 03:57:55;;;;;;;2.40;1.85;;;20.70;31.40;;;;;;5012034;28;20386;-62
2021/03/24 04:00:28;;;;;;;2.63;2.00;;;20.70;31.40;;;;;;5012155;28;20888;-64
2021/03/24 04:03:15;;;;;;;3.15;2.30;;;20.70;31.40;;;;;;5011856;28;20420;-63
2021/03/24 04:05:43;;;;;;;2.72;2.00;;;20.70;31.30;;;;;;5011944;28;20893;-63
2021/03/24 04:08:16;;;;;;;4.07;2.20;;;20.70;31.40;;;;;;5011681;28;20404;-63
2021/03/24 04:10:49;;;;;;;3.35;2.20;;;20.70;32.50;;;;;;5012189;28;20443;-63
2021/03/24 04:13:16;;;;;;;2.78;2.20;;;20.70;32.40;;;;;;5011962;28;20475;-65
2021/03/24 04:15:42;;;;;;;3.13;2.30;;;20.80;32.60;;;;;;5011664;28;20451;-64
2021/03/24 04:18:16;;;;;;;3.03;2.00;;;20.70;32.20;;;;;;5011817;28;20884;-63
2021/03/24 04:20:42;;;;;;;2.92;2.05;;;20.70;33.10;;;;;;5012019;28;20420;-64
2021/03/24 04:23:14;;;;;;;3.70;2.28;;;20.80;33.90;;;;;;5009517;28;20762;-63
2021/03/24 04:26:05;;;;;;;2.92;2.10;;;20.80;33.50;;;;;;5027167;28;20392;-64
2021/03/24 04:28:35;;;;;;;3.88;2.10;;;20.90;33.80;;;;;;5011875;28;20405;-64
2021/03/24 04:31:04;;;;;;;4.25;2.40;;;20.90;33.70;;;;;;5011713;28;20392;-62
2021/03/24 04:33:30;;;;;;;3.80;2.20;;;20.90;33.90;;;;;;5011370;28;20409;-63
2021/03/24 04:36:01;;;;;;;2.97;2.10;;;20.90;34.00;;;;;;5011135;28;20391;-63
2021/03/24 04:38:31;;;;;;;2.85;2.03;;;20.90;33.50;;;;;;5011413;28;20424;-63
2021/03/24 04:41:00;;;;;;;2.53;1.98;;;21.00;33.40;;;;;;5011646;28;20439;-63
2021/03/24 04:43:30;;;;;;;3.10;2.13;;;21.10;32.80;;;;;;5011538;28;20746;-64
2021/03/24 04:46:05;;;;;;;2.78;1.98;;;21.10;32.70;;;;;;5009891;28;20435;-63
2021/03/24 04:48:40;;;;;;;3.42;2.00;;;21.20;32.60;;;;;;5011427;28;20393;-63
2021/03/24 04:51:31;;;;;;;3.63;1.80;;;21.30;32.60;;;;;;5004535;28;20455;-64
2021/03/24 04:54:36;;;;;;;3.40;2.00;;;21.40;32.80;;;;;;5009865;28;20405;-64
2021/03/24 04:57:07;;;;;;;2.63;1.90;;;21.40;32.00;;;;;;4969654;28;20499;-64
2021/03/24 04:59:40;;;;;;;2.87;1.70;;;21.30;31.80;;;;;;4970426;28;20400;-64
2021/03/24 05:02:33;;;;;;;4.68;1.80;;;21.40;31.70;;;;;;4993266;28;20431;-65
2021/03/24 05:05:24;;;;;;;3.05;1.70;;;21.30;31.70;;;;;;5007363;28;20761;-63
2021/03/24 05:08:09;;;;;;;5.50;1.80;;;21.40;31.80;;;;;;5010740;28;20896;-63
2021/03/24 05:10:35;;;;;;;3.90;1.70;;;21.40;32.30;;;;;;5011312;28;20500;-64
2021/03/24 05:13:07;;;;;;;6.82;2.08;;;21.40;33.20;;;;;;5011200;28;20397;-64
2021/03/24 05:15:45;;;;;;;3.50;1.75;;;21.50;33.00;;;;;;5011407;28;20388;-63
2021/03/24 05:18:13;;;;;;;3.45;1.90;;;21.50;32.90;;;;;;5011097;28;20385;-64
2021/03/24 05:21:09;;;;;;;5.22;1.77;;;21.50;32.10;;;;;;5011275;28;20468;-64
2021/03/24 05:23:35;;;;;;;3.97;1.58;;;21.50;31.80;;;;;;5010029;28;20460;-64
2021/03/24 05:26:05;;;;;;;3.15;1.60;;;21.50;32.00;;;;;;5010046;28;21275;-64
2021/03/24 05:28:41;;;;;;;3.97;1.90;;;21.50;31.60;;;;;;5010830;28;20447;-64
2021/03/24 05:31:17;;;;;;;3.10;1.60;;;21.50;31.50;;;;;;5011239;28;20447;-64
2021/03/24 05:33:47;;;;;;;4.28;1.90;;;21.50;31.60;;;;;;5012521;28;20413;-64
2021/03/24 05:36:19;;;;;;;5.63;1.70;;;21.50;31.60;;;;;;5014932;28;20375;-64
2021/03/24 05:38:51;;;;;;;3.78;1.60;;;21.50;32.20;;;;;;5013437;28;21011;-63
2021/03/24 05:41:30;;;;;;;3.78;1.73;;;21.60;32.50;;;;;;5014473;28;20393;-64
2021/03/24 05:44:28;;;;;;;3.30;1.50;;;21.60;32.30;;;;;;5014085;28;20463;-64
2021/03/24 05:47:31;;;;;;;3.30;1.60;;;21.60;31.80;;;;;;5014668;28;20450;-63
2021/03/24 05:50:28;;;;;;;3.85;1.70;;;21.60;31.60;;;;;;5014095;28;20401;-64
2021/03/24 05:53:12;;;;;;;3.75;1.45;;;21.60;31.70;;;;;;5013192;28;20412;-64
2021/03/24 05:55:58;;;;;;;3.60;1.52;;;21.70;31.60;;;;;;5014462;28;20484;-64
2021/03/24 05:58:48;;;;;;;3.30;1.50;;;21.70;31.50;;;;;;5012621;28;20389;-64
2021/03/24 06:01:28;;;;;;;3.30;1.50;;;21.70;31.50;;;;;;5012699;28;20397;-63
2021/03/24 06:04:38;;;;;;;3.05;1.30;;;21.70;31.10;;;;;;5013629;28;20417;-63
2021/03/24 06:07:23;;;;;;;3.27;1.37;;;21.70;30.90;;;;;;5013244;28;20471;-64
2021/03/24 06:10:10;;;;;;;5.00;1.45;;;21.60;31.20;;;;;;5012476;28;20397;-62
2021/03/24 06:12:59;;;;;;;5.18;1.50;;;21.60;31.20;;;;;;5012826;28;20393;-64
2021/03/24 06:15:59;;;;;;;9.85;1.75;;;21.70;31.30;;;;;;5014213;28;20868;-64
2021/03/24 06:18:36;;;;;;;5.50;1.83;;;21.60;31.20;;;;;;5014048;28;20393;-64
2021/03/24 06:21:19;;;;;;;3.72;1.60;;;21.70;31.10;;;;;;5013883;28;20396;-64
2021/03/24 06:24:06;;;;;;;5.37;1.60;;;21.60;31.30;;;;;;5013694;28;20447;-63
2021/03/24 06:26:41;;;;;;;9.57;1.80;;;21.70;31.20;;;;;;5013901;28;20389;-64
2021/03/24 06:29:29;;;;;;;5.78;1.50;;;21.60;31.10;;;;;;5013847;28;20981;-64
2021/03/24 06:32:04;;;;;;;2.97;1.35;;;21.70;31.00;;;;;;5013047;28;20480;-64
2021/03/24 06:34:50;;;;;;;3.30;1.30;;;21.70;31.00;;;;;;5012603;28;20397;-64
2021/03/24 06:37:56;;;;;;;3.20;1.40;;;21.70;30.80;;;;;;5013760;28;20393;-64
2021/03/24 06:41:12;;;;;;;3.78;1.38;;;21.70;30.70;;;;;;5013767;28;20389;-64
2021/03/24 06:44:29;;;;;;;4.00;1.30;;;21.70;30.60;;;;;;4972378;28;20438;-63
2021/03/24 06:46:55;;;;;;;3.35;1.35;;;21.70;30.60;;;;;;4972233;28;20400;-63
2021/03/24 06:49:38;;;;;;;2.90;1.40;;;21.70;30.50;;;;;;5009373;28;20458;-64
2021/03/24 06:52:27;;;;;;;3.10;1.30;;;21.70;30.40;;;;;;5012886;28;20866;-64
2021/03/24 06:54:58;;;;;;;3.63;1.42;;;21.70;30.50;;;;;;5013347;28;20527;-64
2021/03/24 06:57:59;;;;;;;2.63;1.30;;;21.70;30.40;;;;;;5012493;28;20443;-64
2021/03/24 07:00:43;;;;;;;2.10;1.33;;;21.80;30.40;;;;;;5012060;28;20483;-63
2021/03/24 07:03:38;;;;;;;3.10;1.50;;;21.80;30.30;;;;;;5013070;28;20765;-64
2021/03/24 07:06:22;;;;;;;2.97;1.30;;;21.80;30.30;;;;;;5012695;28;20404;-64
2021/03/24 07:09:00;;;;;;;2.30;1.40;;;21.80;30.20;;;;;;5013106;28;20400;-64
2021/03/24 07:11:44;;;;;;;3.30;1.48;;;21.90;30.10;;;;;;5013175;28;20411;-62
2021/03/24 07:14:30;;;;;;;3.00;1.35;;;21.90;30.00;;;;;;5012616;28;20393;-63
2021/03/24 07:17:01;;;;;;;5.00;1.40;;;21.90;30.00;;;;;;5003704;28;21193;-63
2021/03/24 07:20:05;;;;;;;4.43;1.50;;;21.90;30.50;;;;;;4997090;28;20753;-63
2021/03/24 07:23:15;;;;;;;4.72;1.52;;;21.90;30.20;;;;;;5012184;28;20443;-63
2021/03/24 07:25:44;;;;;;;6.35;1.40;;;22.00;31.00;;;;;;5025187;28;20407;-64
2021/03/24 07:28:30;;;;;;;5.15;1.35;;;22.10;31.20;;;;;;5010377;28;20385;-63
2021/03/24 07:31:05;;;;;;;5.43;1.60;;;22.10;30.80;;;;;;5007184;28;20409;-63
2021/03/24 07:33:53;;;;;;;3.78;1.60;;;22.10;30.80;;;;;;5012591;28;20451;-62
2021/03/24 07:36:49;;;;;;;4.68;1.30;;;22.10;30.70;;;;;;5005303;28;20413;-62
2021/03/24 07:39:43;;;;;;;5.00;1.30;;;22.20;30.90;;;;;;5012353;28;20388;-62
2021/03/24 07:42:22;;;;;;;3.60;1.30;;;22.20;30.70;;;;;;5010660;28;20397;-62
2021/03/24 07:45:05;;;;;;;2.45;1.42;;;22.30;30.80;;;;;;5010931;28;20413;-62
2021/03/24 07:47:37;;;;;;;3.67;1.30;;;22.30;30.60;;;;;;5011860;28;20420;-62
2021/03/24 07:50:17;;;;;;;2.38;1.23;;;22.30;30.60;;;;;;5011564;28;20409;-62
2021/03/24 07:53:15;;;;;;;3.33;1.30;;;22.30;30.40;;;;;;5012056;28;20492;-63
2021/03/24 07:56:07;;;;;;;3.67;1.20;;;22.40;30.50;;;;;;5011850;28;20468;-62
2021/03/24 07:58:51;;;;;;;1.85;1.08;;;22.40;30.50;;;;;;5011858;28;20392;-63
2021/03/24 08:01:36;;;;;;;3.47;1.30;;;22.40;30.30;;;;;;5011974;28;20388;-62
2021/03/24 08:04:36;;;;;;;4.32;1.35;;;22.40;29.70;;;;;;5011424;28;20470;-63
2021/03/24 08:07:05;;;;;;;7.30;1.30;;;22.40;30.00;;;;;;5011789;28;20888;-62
2021/03/24 08:09:58;;;;;;;4.10;1.30;;;22.50;30.10;;;;;;5011887;28;20435;-62
2021/03/24 08:12:53;;;;;;;5.33;1.40;;;22.50;30.20;;;;;;5011705;28;20843;-62
2021/03/24 08:15:40;;;;;;;4.23;1.50;;;22.60;30.10;;;;;;5010612;28;20475;-63
2021/03/24 08:19:04;;;;;;;5.90;1.40;;;22.60;30.10;;;;;;5011266;28;20428;-63
2021/03/24 08:21:57;;;;;;;3.00;0.90;;;22.60;30.10;;;;;;4974301;28;20423;-63
2021/03/24 08:24:59;;;;;;;6.13;1.20;;;22.60;30.10;;;;;;5011906;28;20420;-61
2021/03/24 08:28:03;;;;;;;6.80;1.30;;;22.60;30.00;;;;;;5010332;28;20785;-62
2021/03/24 08:30:50;;;;;;;3.28;1.20;;;22.70;30.70;;;;;;5010244;28;20551;-61
2021/03/24 08:33:40;;;;;;;4.85;1.10;;;22.70;30.10;;;;;;5010119;28;20801;-61
2021/03/24 08:36:18;;;;;;;2.47;1.20;;;22.70;30.00;;;;;;5011072;28;20390;-61
2021/03/24 08:39:20;;;;;;;4.20;1.15;;;22.70;30.00;;;;;;5010303;28;20411;-62
2021/03/24 08:41:55;;;;;;;3.25;1.10;;;22.70;30.00;;;;;;5010155;28;20403;-62
2021/03/24 08:44:36;;;;;;;3.55;1.35;;;22.80;29.90;;;;;;5010809;28;20421;-62
2021/03/24 08:47:18;;;;;;;3.42;1.38;;;22.80;30.00;;;;;;5011215;28;20745;-62
2021/03/24 08:49:49;;;;;;;3.50;1.17;;;22.80;31.60;;;;;;5011413;28;20400;-62
2021/03/24 08:52:30;;;;;;;6.17;1.40;;;22.80;31.00;;;;;;5009717;28;20401;-62
2021/03/24 08:55:14;;;;;;;3.78;1.13;;;22.80;30.60;;;;;;5010006;28;20419;-62
2021/03/24 08:58:02;;;;;;;3.63;1.10;;;22.90;30.20;;;;;;5005184;28;20870;-62
2021/03/24 09:00:36;;;;;;;2.90;1.23;;;22.90;30.70;;;;;;5010981;28;20407;-63
2021/03/24 09:03:35;;;;;;;2.92;1.10;;;22.90;30.00;;;;;;4994201;28;20414;-63
2021/03/24 09:06:25;;;;;;;2.80;1.40;;;22.90;29.70;;;;;;4989440;28;20390;-62
2021/03/24 09:08:53;;;;;;;1.85;1.20;;;22.90;29.90;;;;;;5005519;28;20762;-63
2021/03/24 09:11:54;;;;;;;3.05;1.30;;;22.90;29.70;;;;;;5002783;28;20416;-62
2021/03/24 09:14:39;;;;;;;3.00;1.27;;;22.90;30.00;;;;;;4994357;28;20902;-63
2021/03/24 09:17:05;;;;;;;4.00;1.48;;;22.90;29.70;;;;;;4995630;28;20580;-63
2021/03/24 09:20:12;;;;;;;3.05;1.27;;;23.00;29.70;;;;;;4995455;28;20405;-63
2021/03/24 09:23:15;;;;;;;2.20;1.10;;;23.00;29.60;;;;;;4982191;28;20403;-63
2021/03/24 09:25:59;;;;;;;2.70;1.02;;;23.00;29.50;;;;;;4995192;28;20391;-62
2021/03/24 09:28:55;;;;;;;2.80;1.27;;;23.00;29.50;;;;;;4994899;28;20387;-63
2021/03/24 09:31:46;;;;;;;3.72;1.50;;;23.10;29.40;;;;;;4993926;28;20387;-62
2021/03/24 09:34:23;;;;;;;5.57;1.40;;;23.10;29.60;;;;;;4992912;28;20418;-62
2021/03/24 09:36:59;;;;;;;5.95;1.35;;;23.30;34.90;;;;;;4994149;28;20859;-62
2021/03/24 09:39:42;;;;;;;3.40;1.25;;;23.50;32.50;;;;;;4994875;28;20425;-61
2021/03/24 09:42:25;;;;;;;5.78;1.30;;;23.60;31.30;;;;;;4994766;28;20393;-61
2021/03/24 09:44:54;;;;;;;5.60;1.20;;;23.70;30.90;;;;;;4995043;28;20442;-62
2021/03/24 09:47:47;;;;;;;4.85;1.25;;;23.70;30.80;;;;;;4995097;28;20386;-62
2021/03/24 09:50:19;;;;;;;5.50;1.60;;;23.70;30.90;;;;;;4994593;28;20424;-61
2021/03/24 09:53:11;;;;;;;6.05;1.33;;;23.70;31.00;;;;;;4995113;28;20399;-61
2021/03/24 09:55:55;;;;;;;5.63;1.30;;;23.80;31.10;;;;;;4986916;28;20453;-61
2021/03/24 09:58:29;;;;;;;6.03;1.20;;;23.90;31.00;;;;;;4994648;28;20413;-62
2021/03/24 10:01:33;;;;;;;3.50;1.30;;;23.90;30.60;;;;;;4993605;28;20395;-62
2021/03/24 10:04:29;;;;;;;5.45;1.30;;;23.90;30.60;;;;;;4994425;28;20481;-62
2021/03/24 10:07:23;;;;;;;2.90;1.27;;;24.00;30.60;;;;;;4993746;28;20402;-62
2021/03/24 10:09:57;;;;;;;3.97;1.35;;;24.10;30.40;;;;;;4993352;28;20398;-62
2021/03/24 10:12:57;;;;;;;4.97;1.30;;;24.10;30.50;;;;;;4994443;28;20544;-62
2021/03/24 10:15:35;;;;;;;2.67;1.20;;;24.20;30.20;;;;;;4984163;28;20477;-61
2021/03/24 10:18:27;;;;;;;3.60;1.27;;;24.20;30.20;;;;;;4992971;28;20409;-62
2021/03/24 10:20:57;;;;;;;4.20;1.40;;;24.20;30.20;;;;;;4994561;28;20393;-62
2021/03/24 10:23:46;;;;;;;2.47;1.20;;;24.30;30.20;;;;;;4994632;28;20423;-62
2021/03/24 10:26:16;;;;;;;3.03;1.15;;;24.30;30.20;;;;;;4993957;28;20418;-62
2021/03/24 10:28:56;;;;;;;3.00;1.10;;;24.30;30.10;;;;;;4994356;28;20395;-62
2021/03/24 10:31:25;;;;;;;3.83;1.40;;;24.40;30.30;;;;;;4994350;28;20879;-62
2021/03/24 10:34:01;;;;;;;3.30;1.17;;;24.40;30.00;;;;;;4994007;28;20761;-62
2021/03/24 10:36:52;;;;;;;2.92;1.35;;;24.40;29.90;;;;;;4993939;28;20879;-62
2021/03/24 10:39:29;;;;;;;1.95;1.30;;;24.50;30.20;;;;;;4994082;28;20383;-62
2021/03/24 10:42:28;;;;;;;3.50;1.33;;;24.50;30.10;;;;;;4994022;28;20398;-62
2021/03/24 10:45:20;;;;;;;1.88;1.10;;;24.60;30.00;;;;;;4994047;28;20434;-62
2021/03/24 10:48:03;;;;;;;1.90;1.10;;;24.60;30.00;;;;;;4993705;28;20390;-62
2021/03/24 10:50:59;;;;;;;2.95;1.23;;;24.60;30.00;;;;;;4991960;28;20978;-62
2021/03/24 10:53:29;;;;;;;2.60;1.30;;;24.70;30.00;;;;;;4993779;28;20390;-62
2021/03/24 10:56:31;;;;;;;2.65;1.17;;;24.70;30.70;;;;;;4993836;28;20868;-62
2021/03/24 10:59:14;;;;;;;2.05;1.15;;;24.70;29.90;;;;;;4993666;28;20921;-62
2021/03/24 11:01:40;;;;;;;2.38;1.15;;;24.80;30.70;;;;;;4993741;28;20490;-62
2021/03/24 11:04:35;;;;;;;2.28;1.08;;;24.80;30.00;;;;;;4993141;28;20505;-61
2021/03/24 11:07:00;;;;;;;2.00;1.00;;;24.90;29.80;;;;;;4993559;28;20390;-61
2021/03/24 11:09:45;;;;;;;2.03;1.15;;;25.00;29.90;;;;;;4993474;28;20393;-61
2021/03/24 11:12:13;;;;;;;2.25;1.10;;;25.00;30.00;;;;;;4993126;28;20394;-62
2021/03/24 11:15:15;;;;;;;2.22;1.27;;;25.10;30.00;;;;;;4993293;28;20389;-61
2021/03/24 11:17:43;;;;;;;1.52;0.93;;;25.10;29.90;;;;;;4992843;28;20406;-61
2021/03/24 11:20:14;;;;;;;1.50;0.90;;;25.20;29.90;;;;;;4992932;28;20387;-62
2021/03/24 11:22:59;;;;;;;2.47;1.00;;;25.20;29.90;;;;;;4991943;28;20399;-61
2021/03/24 11:25:31;;;;;;;1.23;0.90;;;25.30;30.00;;;;;;4993356;28;20477;-61
2021/03/24 11:28:00;;;;;;;2.03;1.08;;;25.30;29.90;;;;;;4993136;28;20743;-62
2021/03/24 11:30:38;;;;;;;1.60;1.00;;;25.40;29.90;;;;;;4992671;28;20825;-62
2021/03/24 11:33:17;;;;;;;1.40;0.90;;;25.40;29.90;;;;;;4992893;28;20410;-61
2021/03/24 11:36:05;;;;;;;1.95;1.10;;;25.50;29.90;;;;;;4992929;28;20445;-62
2021/03/24 11:39:05;;;;;;;1.75;1.05;;;25.50;29.90;;;;;;4992878;28;20398;-62
2021/03/24 11:41:34;;;;;;;1.87;1.10;;;25.60;29.80;;;;;;4993137;28;20430;-61
2021/03/24 11:44:04;;;;;;;1.83;1.00;;;25.60;29.90;;;;;;4992660;28;20504;-62
2021/03/24 11:46:51;;;;;;;2.15;1.08;;;25.70;29.70;;;;;;4992685;28;20379;-62
2021/03/24 11:49:33;;;;;;;1.30;0.90;;;25.70;29.80;;;;;;4992772;28;20460;-62
2021/03/24 11:52:10;;;;;;;1.65;0.95;;;25.80;29.80;;;;;;4992741;28;20414;-61
2021/03/24 11:55:02;;;;;;;1.40;1.05;;;25.90;29.70;;;;;;4992714;28;20393;-62
2021/03/24 11:57:42;;;;;;;3.30;1.10;;;25.90;29.70;;;;;;4992574;28;20870;-62
2021/03/24 12:00:29;;;;;;;5.75;1.48;;;25.90;29.70;;;;;;4992286;28;20440;-61
2021/03/24 12:02:59;;;;;;;4.32;1.30;;;25.90;29.50;;;;;;4992474;28;20895;-61
2021/03/24 12:05:28;;;;;;;3.60;1.10;;;26.00;29.80;;;;;;4991324;28;20410;-62
2021/03/24 12:08:09;;;;;;;6.60;1.50;;;26.00;29.70;;;;;;4992478;28;20386;-62
2021/03/24 12:10:42;;;;;;;4.70;1.90;;;26.10;29.50;;;;;;4992494;28;20418;-62
2021/03/24 12:13:26;;;;;;;5.88;2.20;;;26.10;29.20;;;;;;4992378;28;20806;-61
2021/03/24 12:16:06;;;;;;;9.15;2.70;;;26.10;29.30;;;;;;4992223;28;20438;-62
2021/03/24 12:18:44;;;;;;;5.28;2.30;;;26.20;29.20;;;;;;4990751;28;20457;-63
2021/03/24 12:21:18;;;;;;;5.82;1.98;;;26.20;28.90;;;;;;4991727;28;20395;-63
2021/03/24 12:23:46;;;;;;;6.75;2.40;;;26.20;28.80;;;;;;4991786;28;20414;-63
2021/03/24 12:26:41;;;;;;;5.55;2.10;;;26.30;28.90;;;;;;4991773;28;20409;-63
2021/03/24 12:29:12;;;;;;;4.63;1.70;;;26.30;28.80;;;;;;4990462;28;20389;-63
2021/03/24 12:32:06;;;;;;;4.68;1.80;;;26.30;28.70;;;;;;5011369;28;20399;-64
2021/03/24 12:34:40;;;;;;;3.80;1.80;;;26.30;28.90;;;;;;5009715;28;20444;-64
2021/03/24 12:37:06;;;;;;;3.20;1.83;;;26.40;28.70;;;;;;5010182;28;20436;-64
2021/03/24 12:39:34;;;;;;;4.53;1.70;;;26.40;28.50;;;;;;5011756;28;20887;-63
2021/03/24 12:42:19;;;;;;;3.95;1.70;;;26.40;28.60;;;;;;5011207;28;20395;-63
2021/03/24 12:44:46;;;;;;;4.10;1.90;;;26.40;29.00;;;;;;5011123;28;21050;-62
2021/03/24 12:47:31;;;;;;;3.97;1.77;;;26.40;28.80;;;;;;5011892;28;20385;-62
2021/03/24 12:50:29;;;;;;;3.88;1.80;;;26.40;28.70;;;;;;5011201;28;20978;-63
2021/03/24 12:53:03;;;;;;;3.42;1.65;;;26.40;28.80;;;;;;5011230;28;20428;-63
2021/03/24 12:55:31;;;;;;;4.22;1.60;;;26.40;28.80;;;;;;5010392;28;20389;-63
2021/03/24 12:58:20;;;;;;;2.45;1.58;;;26.50;28.80;;;;;;5011472;28;20928;-62
2021/03/24 13:00:52;;;;;;;2.60;1.50;;;26.50;28.80;;;;;;5011597;28;20401;-62
2021/03/24 13:03:51;;;;;;;2.60;1.30;;;26.60;28.90;;;;;;5011514;28;20476;-62
2021/03/24 13:06:37;;;;;;;2.60;1.40;;;26.60;28.70;;;;;;5011108;28;20420;-62
2021/03/24 13:09:06;;;;;;;3.55;1.58;;;26.60;28.70;;;;;;5011523;28;20385;-62
2021/03/24 13:11:53;;;;;;;2.53;1.40;;;26.60;28.70;;;;;;5011491;28;20487;-62
2021/03/24 13:15:01;;;;;;;3.58;1.50;;;26.60;28.50;;;;;;5011160;28;20418;-62
2021/03/24 13:17:39;;;;;;;3.60;1.30;;;26.60;28.70;;;;;;5011493;28;20448;-62
2021/03/24 13:20:15;;;;;;;3.03;1.15;;;26.60;28.60;;;;;;5011367;28;20393;-63
2021/03/24 13:23:07;;;;;;;2.85;1.20;;;26.70;28.70;;;;;;5011218;28;20892;-63
2021/03/24 13:25:47;;;;;;;2.90;1.20;;;26.70;28.50;;;;;;5011407;28;20404;-62
2021/03/24 13:28:36;;;;;;;2.10;1.30;;;26.70;28.60;;;;;;5010838;28;20381;-63
2021/03/24 13:31:10;;;;;;;2.72;1.50;;;26.80;28.50;;;;;;5011265;28;20837;-62
2021/03/24 13:33:41;;;;;;;2.70;1.27;;;26.80;28.40;;;;;;5009858;28;20413;-63
2021/03/24 13:36:26;;;;;;;2.85;1.27;;;26.80;28.30;;;;;;5010574;28;20428;-63
2021/03/24 13:39:14;;;;;;;2.95;1.42;;;26.80;28.50;;;;;;5010171;28;20467;-62
2021/03/24 13:41:50;;;;;;;2.33;1.30;;;26.90;28.60;;;;;;5011182;28;20407;-62
2021/03/24 13:44:35;;;;;;;2.88;1.27;;;26.80;28.50;;;;;;5010745;28;20512;-63
2021/03/24 13:47:07;;;;;;;2.58;1.38;;;26.80;28.50;;;;;;5009734;28;20389;-62
2021/03/24 13:49:54;;;;;;;2.22;1.23;;;26.80;28.70;;;;;;5006476;28;20493;-63